createdAt,value
2018-09-10T00:00:58.098Z,79.75
2018-09-10T00:03:26.749Z,79.29
2018-09-10T00:05:55.189Z,79.64
2018-09-10T00:08:23.621Z,79.72
2018-09-10T00:10:52.273Z,79.77
2018-09-10T00:13:20.722Z,79.56
2018-09-10T00:15:49.581Z,79.93
2018-09-10T00:18:18.034Z,79.55
2018-09-10T00:20:46.586Z,79.77
2018-09-10T00:23:15.030Z,79.99
2018-09-10T00:25:43.523Z,80.09
2018-09-10T00:28:11.950Z,79.97
2018-09-10T00:30:40.982Z,79.77
2018-09-10T00:33:09.472Z,79.87
2018-09-10T00:35:37.908Z,80.10
2018-09-10T00:38:06.353Z,79.78
2018-09-10T00:40:35.137Z,80.29
2018-09-10T00:43:03.618Z,79.95
2018-09-10T00:45:32.070Z,79.72
2018-09-10T00:48:00.887Z,79.93
2018-09-10T00:50:29.329Z,80.32
2018-09-10T00:52:57.961Z,79.94
2018-09-10T00:55:26.425Z,80.25
2018-09-10T00:57:54.870Z,80.17
2018-09-10T01:00:23.749Z,80.00
2018-09-10T01:02:52.682Z,80.31
2018-09-10T01:05:21.161Z,79.94
2018-09-10T01:07:49.713Z,80.17
2018-09-10T01:10:18.216Z,80.35
2018-09-10T01:12:46.981Z,80.22
2018-09-10T01:15:15.470Z,80.26
2018-09-10T01:17:43.988Z,80.40
2018-09-10T01:20:12.703Z,80.39
2018-09-10T01:22:41.142Z,80.20
2018-09-10T01:25:10.861Z,80.34
2018-09-10T01:27:39.583Z,80.26
2018-09-10T01:30:08.718Z,80.41
2018-09-10T01:32:38.169Z,80.69
2018-09-10T01:35:07.708Z,80.32
2018-09-10T01:37:36.649Z,80.35
2018-09-10T01:40:05.735Z,80.29
2018-09-10T01:42:34.185Z,80.45
2018-09-10T01:45:03.225Z,80.64
2018-09-10T01:47:31.997Z,80.32
2018-09-10T01:50:00.457Z,80.16
2018-09-10T01:52:29.402Z,79.93
2018-09-10T01:54:58.069Z,80.54
2018-09-10T01:57:26.501Z,80.32
2018-09-10T01:59:54.935Z,80.27
2018-09-10T02:02:23.470Z,80.35
2018-09-10T02:04:52.234Z,80.17
2018-09-10T02:07:20.670Z,80.54
2018-09-10T02:09:49.144Z,80.71
2018-09-10T02:12:22.899Z,80.55
2018-09-10T02:14:51.905Z,80.64
2018-09-10T02:17:20.373Z,80.55
2018-09-10T02:19:48.813Z,80.55
2018-09-10T02:22:17.586Z,80.65
2018-09-10T02:24:46.027Z,80.80
2018-09-10T02:27:14.490Z,80.74
2018-09-10T02:29:42.983Z,80.63
2018-09-10T02:32:11.602Z,80.98
2018-09-10T02:34:40.511Z,80.90
2018-09-10T02:37:09.245Z,80.91
2018-09-10T02:39:37.701Z,80.76
2018-09-10T02:42:06.462Z,80.88
2018-09-10T02:44:35.242Z,80.94
2018-09-10T02:47:03.681Z,81.25
2018-09-10T02:49:32.396Z,81.08
2018-09-10T02:52:01.033Z,81.32
2018-09-10T02:54:29.458Z,81.21
2018-09-10T02:56:58.103Z,80.87
2018-09-10T02:59:26.732Z,81.22
2018-09-10T03:01:55.170Z,81.38
2018-09-10T03:04:23.617Z,81.50
2018-09-10T03:06:52.789Z,81.56
2018-09-10T03:09:21.215Z,81.47
2018-09-10T03:11:49.941Z,81.53
2018-09-10T03:14:18.581Z,81.44
2018-09-10T03:16:47.023Z,81.51
2018-09-10T03:19:15.493Z,81.63
2018-09-10T03:21:47.317Z,81.73
2018-09-10T03:24:15.928Z,81.96
2018-09-10T03:26:44.365Z,81.85
2018-09-10T03:29:12.796Z,81.87
2018-09-10T03:31:41.237Z,81.75
2018-09-10T03:34:10.607Z,81.95
2018-09-10T03:36:40.369Z,81.76
2018-09-10T03:39:10.149Z,81.78
2018-09-10T03:41:38.691Z,81.82
2018-09-10T03:44:07.453Z,81.86
2018-09-10T03:46:35.889Z,82.19
2018-09-10T03:49:04.367Z,81.94
2018-09-10T03:51:32.812Z,81.99
2018-09-10T03:54:01.239Z,81.95
2018-09-10T03:56:29.771Z,81.94
2018-09-10T03:58:58.349Z,82.04
2018-09-10T04:01:26.797Z,81.97
2018-09-10T04:03:55.285Z,82.23
2018-09-10T04:06:23.721Z,82.12
2018-09-10T04:08:52.250Z,82.09
2018-09-10T04:11:20.856Z,82.22
2018-09-10T04:13:49.301Z,82.37
2018-09-10T04:16:17.769Z,82.36
2018-09-10T04:18:47.137Z,82.45
2018-09-10T04:21:15.623Z,82.45
2018-09-10T04:23:44.603Z,82.47
2018-09-10T04:26:13.097Z,82.59
2018-09-10T04:28:41.523Z,82.67
2018-09-10T04:31:10.058Z,82.84
2018-09-10T04:33:38.785Z,83.07
2018-09-10T04:36:07.280Z,83.16
2018-09-10T04:38:36.372Z,83.03
2018-09-10T04:41:04.886Z,82.96
2018-09-10T04:43:33.323Z,83.11
2018-09-10T04:46:02.002Z,83.07
2018-09-10T04:48:30.590Z,83.08
2018-09-10T04:50:59.018Z,83.14
2018-09-10T04:53:27.554Z,83.24
2018-09-10T04:55:56.036Z,83.09
2018-09-10T04:58:24.501Z,83.08
2018-09-10T05:00:53.146Z,83.34
2018-09-10T05:03:21.645Z,83.37
2018-09-10T05:05:50.173Z,83.34
2018-09-10T05:08:18.610Z,83.52
2018-09-10T05:10:47.308Z,83.55
2018-09-10T05:13:15.738Z,83.23
2018-09-10T05:15:51.242Z,83.16
2018-09-10T05:18:19.689Z,83.24
2018-09-10T05:20:48.209Z,83.23
2018-09-10T05:23:16.896Z,82.96
2018-09-10T05:25:45.558Z,83.33
2018-09-10T05:28:14.038Z,83.25
2018-09-10T05:30:42.475Z,83.07
2018-09-10T05:33:11.060Z,83.05
2018-09-10T05:35:39.506Z,83.14
2018-09-10T05:38:08.682Z,82.93
2018-09-10T05:40:38.656Z,82.86
2018-09-10T05:43:07.086Z,82.80
2018-09-10T05:45:35.699Z,82.23
2018-09-10T05:48:04.160Z,82.53
2018-09-10T05:50:32.594Z,81.87
2018-09-10T05:53:01.090Z,82.11
2018-09-10T05:55:29.577Z,82.24
2018-09-10T05:57:57.984Z,81.61
2018-09-10T06:00:26.691Z,81.36
2018-09-10T06:02:55.546Z,81.31
2018-09-10T06:05:23.986Z,81.51
2018-09-10T06:07:52.546Z,81.38
2018-09-10T06:10:21.025Z,81.19
2018-09-10T06:12:49.462Z,81.01
2018-09-10T06:15:17.968Z,80.48
2018-09-10T06:17:46.415Z,80.48
2018-09-10T06:20:14.947Z,80.43
2018-09-10T06:22:43.414Z,80.14
2018-09-10T06:25:11.858Z,79.66
2018-09-10T06:27:40.440Z,79.25
2018-09-10T06:30:09.011Z,79.05
2018-09-10T06:32:37.980Z,79.17
2018-09-10T06:35:06.484Z,78.22
2018-09-10T06:37:35.008Z,78.37
2018-09-10T06:40:03.479Z,77.44
2018-09-10T06:42:32.047Z,77.59
2018-09-10T06:45:00.794Z,77.18
2018-09-10T06:47:29.233Z,77.19
2018-09-10T06:49:57.680Z,76.20
2018-09-10T06:52:26.134Z,75.52
2018-09-10T06:54:54.593Z,76.04
2018-09-10T06:57:23.049Z,75.48
2018-09-10T06:59:51.564Z,75.09
2018-09-10T07:02:26.535Z,74.00
2018-09-10T07:04:55.536Z,74.35
2018-09-10T07:07:23.975Z,72.50
2018-09-10T07:09:52.449Z,71.92
2018-09-10T07:12:20.917Z,71.29
2018-09-10T07:14:49.337Z,70.30
2018-09-10T07:17:17.773Z,69.73
2018-09-10T07:19:46.214Z,68.91
2018-09-10T07:22:14.665Z,68.99
2018-09-10T07:24:43.142Z,68.86
2018-09-10T07:27:11.605Z,69.20
2018-09-10T07:29:40.102Z,68.76
2018-09-10T07:32:08.576Z,68.42
2018-09-10T07:34:37.391Z,68.22
2018-09-10T07:37:05.803Z,67.70
2018-09-10T07:39:34.230Z,67.86
2018-09-10T07:42:02.781Z,67.63
2018-09-10T07:44:31.297Z,67.44
2018-09-10T07:46:59.793Z,67.11
2018-09-10T07:49:28.317Z,66.63
2018-09-10T07:51:56.841Z,66.26
2018-09-10T07:54:25.359Z,66.55
2018-09-10T07:56:53.742Z,66.48
2018-09-10T07:59:22.437Z,66.88
2018-09-10T08:01:50.869Z,66.44
2018-09-10T08:04:19.561Z,66.08
2018-09-10T08:06:48.141Z,66.49
2018-09-10T08:09:16.683Z,65.87
2018-09-10T08:11:45.407Z,65.71
2018-09-10T08:14:13.933Z,65.05
2018-09-10T08:16:42.938Z,64.84
2018-09-10T08:19:11.471Z,64.44
2018-09-10T08:21:39.934Z,63.26
2018-09-10T08:24:08.409Z,63.18
2018-09-10T08:26:36.849Z,62.15
2018-09-10T08:29:05.547Z,61.53
2018-09-10T08:31:34.368Z,62.02
2018-09-10T08:34:02.844Z,61.61
2018-09-10T08:36:31.307Z,61.60
2018-09-10T08:38:59.773Z,61.79
2018-09-10T08:41:28.425Z,61.65
2018-09-10T08:43:57.136Z,60.88
2018-09-10T08:46:25.824Z,59.64
2018-09-10T08:48:54.363Z,57.44
2018-09-10T08:51:22.857Z,55.86
2018-09-10T08:53:51.296Z,54.93
2018-09-10T08:56:19.968Z,54.18
2018-09-10T08:58:48.244Z,54.61
2018-09-10T09:01:16.686Z,55.00
2018-09-10T09:03:45.157Z,54.31
2018-09-10T09:06:13.826Z,53.90
2018-09-10T09:08:43.106Z,54.59
2018-09-10T09:11:12.706Z,55.30
2018-09-10T09:13:41.133Z,55.30
2018-09-10T09:16:09.614Z,55.83
2018-09-10T09:18:38.173Z,56.53
2018-09-10T09:21:06.643Z,56.95
2018-09-10T09:23:35.657Z,57.34
2018-09-10T09:26:04.069Z,58.16
2018-09-10T09:28:32.498Z,58.33
2018-09-10T09:31:00.934Z,58.49
2018-09-10T09:33:29.818Z,58.81
2018-09-10T09:36:03.465Z,58.45
2018-09-10T09:38:37.366Z,58.86
2018-09-10T09:41:10.969Z,58.79
2018-09-10T09:43:44.663Z,58.60
2018-09-10T09:46:15.233Z,58.31
2018-09-10T09:48:44.418Z,58.35
2018-09-10T09:51:12.928Z,58.66
2018-09-10T09:53:41.781Z,58.22
2018-09-10T09:56:10.734Z,58.50
2018-09-10T09:58:39.149Z,58.08
2018-09-10T10:01:13.009Z,57.40
2018-09-10T10:03:47.121Z,56.57
2018-09-10T10:06:15.590Z,56.47
2018-09-10T10:08:44.743Z,56.36
2018-09-10T10:11:13.457Z,56.49
2018-09-10T10:13:41.968Z,56.61
2018-09-10T10:16:10.573Z,56.85
2018-09-10T10:18:39.002Z,55.86
2018-09-10T10:21:07.586Z,56.24
2018-09-10T10:23:36.153Z,55.89
2018-09-10T10:26:04.938Z,56.10
2018-09-10T10:28:33.992Z,56.13
2018-09-10T10:31:02.641Z,56.05
2018-09-10T10:33:31.133Z,56.48
2018-09-10T10:35:59.808Z,56.76
2018-09-10T10:38:28.245Z,57.47
2018-09-10T10:40:56.937Z,57.19
2018-09-10T10:43:25.925Z,57.37
2018-09-10T10:45:54.371Z,57.53
2018-09-10T10:48:22.803Z,57.61
2018-09-10T10:50:51.981Z,58.44
2018-09-10T10:53:20.446Z,58.31
2018-09-10T10:55:48.881Z,59.03
2018-09-10T10:58:17.590Z,59.13
2018-09-10T11:00:46.110Z,59.74
2018-09-10T11:03:14.545Z,59.91
2018-09-10T11:05:43.003Z,59.78
2018-09-10T11:08:11.533Z,60.43
2018-09-10T11:10:40.125Z,60.70
2018-09-10T11:13:08.726Z,61.03
2018-09-10T11:15:37.161Z,61.17
2018-09-10T11:18:06.080Z,61.67
2018-09-10T11:20:34.572Z,61.30
2018-09-10T11:23:03.016Z,61.04
2018-09-10T11:25:31.596Z,61.27
2018-09-10T11:28:00.421Z,61.42
2018-09-10T11:30:28.842Z,61.34
2018-09-10T11:32:57.483Z,61.30
2018-09-10T11:35:25.955Z,61.38
2018-09-10T11:37:54.397Z,60.91
2018-09-10T11:40:22.825Z,60.97
2018-09-10T11:42:51.546Z,60.60
2018-09-10T11:45:20.013Z,60.01
2018-09-10T11:47:48.481Z,60.19
2018-09-10T11:50:17.152Z,60.17
2018-09-10T11:52:45.641Z,59.83
2018-09-10T11:55:14.092Z,60.69
2018-09-10T11:57:42.572Z,60.69
2018-09-10T12:00:11.679Z,60.47
2018-09-10T12:02:40.138Z,60.53
2018-09-10T12:05:08.654Z,60.53
2018-09-10T12:07:37.661Z,60.36
2018-09-10T12:10:06.474Z,60.66
2018-09-10T12:12:41.589Z,60.78
2018-09-10T12:15:10.636Z,60.77
2018-09-10T12:17:39.093Z,60.67
2018-09-10T12:20:07.656Z,60.55
2018-09-10T12:22:42.867Z,60.77
2018-09-10T12:25:12.230Z,60.71
2018-09-10T12:27:40.666Z,60.93
2018-09-10T12:30:09.133Z,60.69
2018-09-10T12:32:37.570Z,61.39
2018-09-10T12:35:06.019Z,61.43
2018-09-10T12:37:34.394Z,61.06
2018-09-10T12:40:02.805Z,61.56
2018-09-10T12:42:31.178Z,61.90
2018-09-10T12:45:00.014Z,62.46
2018-09-10T12:47:28.430Z,62.19
2018-09-10T12:49:56.819Z,62.68
2018-09-10T12:52:25.203Z,62.43
2018-09-10T12:54:53.639Z,62.48
2018-09-10T12:57:22.035Z,62.91
2018-09-10T12:59:50.511Z,62.92
2018-09-10T13:02:19.004Z,62.88
2018-09-10T13:04:47.391Z,63.17
2018-09-10T13:07:15.814Z,63.73
2018-09-10T13:09:44.222Z,64.11
2018-09-10T13:12:13.386Z,64.89
2018-09-10T13:14:41.986Z,66.24
2018-09-10T13:17:10.482Z,66.36
2018-09-10T13:19:38.884Z,66.34
2018-09-10T13:22:07.287Z,66.72
2018-09-10T13:24:35.987Z,67.44
2018-09-10T13:27:04.373Z,66.85
2018-09-10T13:29:32.752Z,67.01
2018-09-10T13:32:01.146Z,67.05
2018-09-10T13:34:29.527Z,67.07
2018-09-10T13:36:57.920Z,67.41
2018-09-10T13:39:26.492Z,66.65
2018-09-10T13:41:54.903Z,66.57
2018-09-10T13:44:23.302Z,66.59
2018-09-10T13:46:51.834Z,65.92
2018-09-10T13:49:20.298Z,66.24
2018-09-10T13:51:48.710Z,65.72
2018-09-10T13:54:17.259Z,65.59
2018-09-10T13:56:45.698Z,65.85
2018-09-10T13:59:14.120Z,65.96
2018-09-10T14:01:42.596Z,65.58
2018-09-10T14:04:11.930Z,65.51
2018-09-10T14:06:41.189Z,65.52
2018-09-10T14:09:09.869Z,66.17
2018-09-10T14:11:38.698Z,66.15
2018-09-10T14:14:07.676Z,66.34
2018-09-10T14:16:36.250Z,66.43
2018-09-10T14:19:04.658Z,67.44
2018-09-10T14:21:33.097Z,68.57
2018-09-10T14:24:01.533Z,70.60
2018-09-10T14:26:30.047Z,71.86
2018-09-10T14:28:58.445Z,73.07
2018-09-10T14:31:26.866Z,73.88
2018-09-10T14:33:55.246Z,73.94
2018-09-10T14:36:23.658Z,74.73
2018-09-10T14:38:52.100Z,75.58
2018-09-10T14:41:20.503Z,75.80
2018-09-10T14:43:49.015Z,76.17
2018-09-10T14:46:17.496Z,75.76
2018-09-10T14:48:46.386Z,76.48
2018-09-10T14:51:14.774Z,75.91
2018-09-10T14:53:43.234Z,76.09
2018-09-10T14:56:12.304Z,75.73
2018-09-10T14:58:40.691Z,75.74
2018-09-10T15:01:09.118Z,75.42
2018-09-10T15:03:37.499Z,75.82
2018-09-10T15:06:05.896Z,75.90
2018-09-10T15:08:34.407Z,75.95
2018-09-10T15:11:02.786Z,76.36
2018-09-10T15:13:31.332Z,76.11
2018-09-10T15:15:59.762Z,76.50
2018-09-10T15:18:28.369Z,75.89
2018-09-10T15:20:56.715Z,76.00
2018-09-10T15:23:25.183Z,76.55
2018-09-10T15:25:53.578Z,77.19
2018-09-10T15:28:22.289Z,77.28
2018-09-10T15:30:50.699Z,77.48
2018-09-10T15:33:25.743Z,77.85
2018-09-10T15:35:54.191Z,76.71
2018-09-10T15:38:29.582Z,76.42
2018-09-10T15:40:58.063Z,76.23
2018-09-10T15:43:26.450Z,76.43
2018-09-10T15:45:54.849Z,76.96
2018-09-10T15:48:23.440Z,77.14
2018-09-10T15:50:52.060Z,77.32
2018-09-10T15:53:20.668Z,77.31
2018-09-10T15:55:49.114Z,78.13
2018-09-10T15:58:17.619Z,78.24
2018-09-10T16:00:46.142Z,78.44
2018-09-10T16:03:14.598Z,79.19
2018-09-10T16:05:43.004Z,79.33
2018-09-10T16:08:12.086Z,79.44
2018-09-10T16:10:40.785Z,80.34
2018-09-10T16:13:09.223Z,79.87
2018-09-10T16:15:37.643Z,80.67
2018-09-10T16:18:06.403Z,80.89
2018-09-10T16:20:34.931Z,81.08
2018-09-10T16:23:03.330Z,81.20
2018-09-10T16:25:32.113Z,81.32
2018-09-10T16:28:00.602Z,81.80
2018-09-10T16:30:30.122Z,82.08
2018-09-10T16:32:58.605Z,82.30
2018-09-10T16:35:27.007Z,82.37
2018-09-10T16:37:55.423Z,82.41
2018-09-10T16:40:24.682Z,82.08
2018-09-10T16:42:53.090Z,82.28
2018-09-10T16:45:21.508Z,82.54
2018-09-10T16:47:49.986Z,82.62
2018-09-10T16:50:19.070Z,82.34
2018-09-10T16:52:47.942Z,82.65
2018-09-10T16:55:16.518Z,82.92
2018-09-10T16:57:44.926Z,82.51
2018-09-10T17:00:13.366Z,82.48
2018-09-10T17:02:42.724Z,82.44
2018-09-10T17:05:11.130Z,82.46
2018-09-10T17:07:39.610Z,82.17
2018-09-10T17:10:08.088Z,82.64
2018-09-10T17:12:36.515Z,82.36
2018-09-10T17:15:05.442Z,82.85
2018-09-10T17:17:33.870Z,82.51
2018-09-10T17:20:02.289Z,82.64
2018-09-10T17:22:30.894Z,82.87
2018-09-10T17:24:59.302Z,82.64
2018-09-10T17:27:27.740Z,82.46
2018-09-10T17:29:56.131Z,82.72
2018-09-10T17:32:25.171Z,82.77
2018-09-10T17:34:53.559Z,82.87
2018-09-10T17:37:22.044Z,82.83
2018-09-10T17:39:50.479Z,83.46
2018-09-10T17:42:18.857Z,83.42
2018-09-10T17:44:47.502Z,83.39
2018-09-10T17:47:22.331Z,83.03
2018-09-10T17:49:50.750Z,83.11
2018-09-10T17:52:19.136Z,82.41
2018-09-10T17:54:47.842Z,82.69
2018-09-10T17:57:16.250Z,82.01
2018-09-10T17:59:44.903Z,82.13
2018-09-10T18:02:13.319Z,82.18
2018-09-10T18:04:42.362Z,81.74
2018-09-10T18:07:10.779Z,82.09
2018-09-10T18:09:39.211Z,82.09
2018-09-10T18:12:07.639Z,81.90
2018-09-10T18:14:36.033Z,82.21
2018-09-10T18:17:04.481Z,82.10
2018-09-10T18:19:32.939Z,82.33
2018-09-10T18:22:01.349Z,81.84
2018-09-10T18:24:29.975Z,82.12
2018-09-10T18:26:58.362Z,82.37
2018-09-10T18:29:27.254Z,82.00
2018-09-10T18:31:55.679Z,82.06
2018-09-10T18:34:24.495Z,82.09
2018-09-10T18:36:52.907Z,82.45
2018-09-10T18:39:21.358Z,82.39
2018-09-10T18:41:49.766Z,82.08
2018-09-10T18:44:18.155Z,82.56
2018-09-10T18:46:46.699Z,82.76
2018-09-10T18:49:15.093Z,82.81
2018-09-10T18:51:43.498Z,82.80
2018-09-10T18:54:11.906Z,82.72
2018-09-10T18:56:41.600Z,82.82
2018-09-10T18:59:10.109Z,83.11
2018-09-10T19:01:38.623Z,82.93
2018-09-10T19:04:07.034Z,83.21
2018-09-10T19:06:35.456Z,83.40
2018-09-10T19:09:04.801Z,83.25
2018-09-10T19:11:33.385Z,83.47
2018-09-10T19:14:01.882Z,83.87
2018-09-10T19:16:30.304Z,83.58
2018-09-10T19:18:58.699Z,83.80
2018-09-10T19:21:27.135Z,83.67
2018-09-10T19:23:55.580Z,83.78
2018-09-10T19:26:24.298Z,84.01
2018-09-10T19:28:52.758Z,83.92
2018-09-10T19:31:21.255Z,84.09
2018-09-10T19:33:49.655Z,84.05
2018-09-10T19:36:18.138Z,84.08
2018-09-10T19:38:46.570Z,84.30
2018-09-10T19:41:14.970Z,84.07
2018-09-10T19:43:43.412Z,84.40
2018-09-10T19:46:11.864Z,84.56
2018-09-10T19:48:40.635Z,84.55
2018-09-10T19:51:09.042Z,84.61
2018-09-10T19:53:37.494Z,84.56
2018-09-10T19:56:05.914Z,85.06
2018-09-10T19:58:34.517Z,84.83
2018-09-10T20:01:02.957Z,84.96
2018-09-10T20:03:31.390Z,84.87
2018-09-10T20:05:59.802Z,85.00
2018-09-10T20:08:28.288Z,85.06
2018-09-10T20:10:56.699Z,85.29
2018-09-10T20:13:25.098Z,85.34
2018-09-10T20:15:53.713Z,85.28
2018-09-10T20:18:22.203Z,85.34
2018-09-10T20:23:25.295Z,85.34
2018-09-10T20:25:53.834Z,85.47
2018-09-10T20:28:22.827Z,85.54
2018-09-10T20:30:51.291Z,85.63
2018-09-10T20:33:20.186Z,85.68
2018-09-10T20:35:48.566Z,85.60
2018-09-10T20:38:17.446Z,85.73
2018-09-10T20:40:45.838Z,85.83
2018-09-10T20:43:14.775Z,86.04
2018-09-10T20:45:43.289Z,86.02
2018-09-10T20:48:12.706Z,86.18
2018-09-10T20:50:41.139Z,86.15
2018-09-10T20:53:09.654Z,86.21
2018-09-10T20:55:38.740Z,86.24
2018-09-10T20:58:07.138Z,86.29
2018-09-10T21:00:35.641Z,86.21
2018-09-10T21:03:04.903Z,86.50
2018-09-10T21:05:33.282Z,86.29
2018-09-10T21:08:01.727Z,86.41
2018-09-10T21:10:30.126Z,86.51
2018-09-10T21:12:58.579Z,86.64
2018-09-10T21:15:27.032Z,86.65
2018-09-10T21:17:55.475Z,86.88
2018-09-10T21:20:24.304Z,86.73
2018-09-10T21:22:53.170Z,86.76
2018-09-10T21:25:21.618Z,86.80
2018-09-10T21:27:50.006Z,86.79
2018-09-10T21:30:18.611Z,86.72
2018-09-10T21:32:47.026Z,86.74
2018-09-10T21:35:15.446Z,86.78
2018-09-10T21:37:44.042Z,86.65
2018-09-10T21:40:12.718Z,86.54
2018-09-10T21:42:41.171Z,86.73
2018-09-10T21:45:09.603Z,86.71
2018-09-10T21:47:37.990Z,86.89
2018-09-10T21:50:06.459Z,86.82
2018-09-10T21:52:35.067Z,86.77
2018-09-10T21:55:03.545Z,86.63
2018-09-10T21:57:31.939Z,86.58
2018-09-10T22:00:00.390Z,86.38
2018-09-10T22:02:36.086Z,86.50
2018-09-10T22:05:04.622Z,86.39
2018-09-10T22:07:33.225Z,86.33
2018-09-10T22:10:01.634Z,86.32
2018-09-10T22:12:30.087Z,86.28
2018-09-10T22:14:58.498Z,86.34
2018-09-10T22:17:26.902Z,86.34
2018-09-10T22:19:55.347Z,86.25
2018-09-10T22:22:23.802Z,86.42
2018-09-10T22:24:52.201Z,86.34
2018-09-10T22:27:20.830Z,86.37
2018-09-10T22:29:49.225Z,86.28
2018-09-10T22:32:17.807Z,86.63
2018-09-10T22:34:46.241Z,86.10
2018-09-10T22:37:14.635Z,86.42
2018-09-10T22:39:43.115Z,86.28
2018-09-10T22:42:11.651Z,86.38
2018-09-10T22:44:40.620Z,86.23
2018-09-10T22:47:09.011Z,86.44
2018-09-10T22:49:37.842Z,86.36
2018-09-10T22:52:06.280Z,86.33
2018-09-10T22:54:34.711Z,86.34
2018-09-10T22:57:03.147Z,86.28
2018-09-10T22:59:31.557Z,86.34
2018-09-10T23:01:59.938Z,86.11
2018-09-10T23:04:28.365Z,86.12
2018-09-10T23:06:56.758Z,86.32
2018-09-10T23:09:25.370Z,86.01
2018-09-10T23:11:53.774Z,86.22
2018-09-10T23:14:22.178Z,86.03
2018-09-10T23:16:50.568Z,86.07
2018-09-10T23:19:18.998Z,85.82
2018-09-10T23:21:47.382Z,85.73
2018-09-10T23:24:15.781Z,85.99
2018-09-10T23:26:44.319Z,85.96
2018-09-10T23:29:12.706Z,85.99
2018-09-10T23:31:41.090Z,85.94
2018-09-10T23:34:09.650Z,85.77
2018-09-10T23:36:38.101Z,85.83
2018-09-10T23:39:08.470Z,85.43
2018-09-10T23:41:36.927Z,85.49
2018-09-10T23:44:05.682Z,85.22
2018-09-10T23:46:34.162Z,85.20
2018-09-10T23:49:02.558Z,85.34
2018-09-10T23:51:30.961Z,85.36
2018-09-10T23:53:59.470Z,85.34
2018-09-10T23:56:27.922Z,85.23
2018-09-10T23:58:56.798Z,85.09
